createdAt,value
2023-02-27T00:02:05.781Z,2.90
2023-02-27T00:04:47.194Z,3.00
2023-02-27T00:07:30.242Z,3.10
2023-02-27T00:10:12.311Z,3.30
2023-02-27T00:12:51.521Z,3.30
2023-02-27T00:15:37.283Z,3.80
2023-02-27T00:18:12.809Z,4.30
2023-02-27T00:20:51.650Z,3.80
2023-02-27T00:23:31.222Z,3.70
2023-02-27T00:26:12.501Z,3.80
2023-02-27T00:28:53.379Z,2.80
2023-02-27T00:31:32.923Z,4.50
2023-02-27T00:34:12.800Z,4.80
2023-02-27T00:36:52.020Z,5.10
2023-02-27T00:39:29.944Z,4.70
2023-02-27T00:42:12.027Z,4.60
2023-02-27T00:47:32.215Z,4.30
2023-02-27T00:50:12.076Z,4.20
2023-02-27T00:52:51.597Z,4.40
2023-02-27T00:55:33.016Z,4.90
2023-02-27T00:58:12.697Z,4.20
2023-02-27T01:00:52.503Z,3.90
2023-02-27T01:03:32.498Z,5.00
2023-02-27T01:06:12.386Z,5.20
2023-02-27T01:08:52.568Z,4.80
2023-02-27T01:11:32.400Z,6.00
2023-02-27T01:14:12.284Z,6.20
2023-02-27T01:16:52.572Z,4.80
2023-02-27T01:19:32.552Z,5.10
2023-02-27T01:22:13.283Z,3.30
2023-02-27T01:24:52.761Z,4.10
2023-02-27T01:27:32.983Z,4.80
2023-02-27T01:30:13.864Z,5.50
2023-02-27T01:32:53.553Z,4.80
2023-02-27T01:35:33.080Z,4.10
2023-02-27T01:38:09.174Z,4.60
2023-02-27T01:40:50.032Z,3.30
2023-02-27T01:43:31.311Z,5.20
2023-02-27T01:46:12.937Z,4.50
2023-02-27T01:51:36.588Z,5.10
2023-02-27T01:54:19.667Z,5.00
2023-02-27T01:56:56.036Z,4.70
2023-02-27T01:59:38.863Z,4.00
2023-02-27T02:02:37.126Z,4.10
2023-02-27T02:05:19.386Z,4.30
2023-02-27T02:08:01.272Z,3.40
2023-02-27T02:10:42.940Z,4.00
2023-02-27T02:13:25.609Z,3.70
2023-02-27T02:16:34.088Z,3.90
2023-02-27T02:19:46.350Z,4.10
2023-02-27T02:23:24.425Z,3.20
2023-02-27T02:26:42.592Z,3.70
2023-02-27T02:30:02.261Z,3.40
2023-02-27T02:33:15.161Z,5.00
2023-02-27T02:36:12.799Z,3.10
2023-02-27T02:39:16.201Z,4.30
2023-02-27T02:42:16.904Z,5.00
2023-02-27T02:45:14.884Z,4.90
2023-02-27T02:48:07.402Z,3.70
2023-02-27T02:50:56.227Z,4.00
2023-02-27T02:53:54.432Z,4.20
2023-02-27T02:56:52.775Z,4.30
2023-02-27T02:59:51.097Z,3.10
2023-02-27T03:02:46.992Z,4.60
2023-02-27T03:05:42.091Z,5.40
2023-02-27T03:08:29.181Z,7.10
2023-02-27T03:11:11.241Z,7.60
2023-02-27T03:14:26.877Z,5.70
2023-02-27T03:17:18.171Z,5.50
2023-02-27T03:20:07.876Z,5.00
2023-02-27T03:22:52.803Z,4.80
2023-02-27T03:25:31.988Z,6.50
2023-02-27T03:28:17.407Z,5.70
2023-02-27T03:31:12.442Z,5.40
2023-02-27T03:34:24.536Z,7.80
2023-02-27T03:37:41.549Z,8.00
2023-02-27T03:41:08.768Z,9.50
2023-02-27T03:44:07.274Z,9.50
2023-02-27T03:46:49.256Z,8.70
2023-02-27T03:49:31.197Z,7.60
2023-02-27T03:52:11.810Z,4.80
2023-02-27T03:55:16.014Z,4.70
2023-02-27T03:57:58.106Z,7.30
2023-02-27T04:00:40.156Z,7.00
2023-02-27T04:03:21.635Z,5.30
2023-02-27T04:06:24.126Z,5.80
2023-02-27T04:09:31.980Z,5.90
2023-02-27T04:12:35.520Z,5.30
2023-02-27T04:15:50.985Z,5.80
2023-02-27T04:19:03.046Z,6.20
2023-02-27T04:22:18.667Z,7.00
2023-02-27T04:25:04.262Z,3.70
2023-02-27T04:27:56.287Z,5.50
2023-02-27T04:30:57.506Z,7.10
2023-02-27T04:37:04.672Z,2.40
2023-02-27T04:40:14.942Z,5.60
2023-02-27T04:42:56.552Z,4.80
2023-02-27T04:45:37.155Z,5.30
2023-02-27T04:48:26.840Z,5.00
2023-02-27T04:51:26.492Z,4.00
2023-02-27T04:54:21.467Z,4.60
2023-02-27T04:57:07.833Z,3.40
2023-02-27T04:59:52.830Z,4.60
2023-02-27T05:02:41.573Z,3.20
2023-02-27T05:05:30.166Z,4.00
2023-02-27T05:08:26.252Z,4.50
2023-02-27T05:11:25.561Z,4.60
2023-02-27T05:14:42.756Z,2.90
2023-02-27T05:17:56.770Z,1.50
2023-02-27T05:21:06.614Z,3.20
2023-02-27T05:24:27.874Z,2.40
2023-02-27T05:27:32.661Z,2.60
2023-02-27T05:30:39.279Z,3.50
2023-02-27T05:33:39.958Z,2.90
2023-02-27T05:36:42.982Z,1.80
2023-02-27T05:39:25.766Z,3.00
2023-02-27T05:42:13.653Z,2.20
2023-02-27T05:45:09.488Z,2.50
2023-02-27T05:48:02.514Z,1.70
2023-02-27T05:50:45.003Z,2.10
2023-02-27T05:53:29.272Z,2.20
2023-02-27T05:56:12.362Z,2.50
2023-02-27T05:59:13.358Z,2.10
2023-02-27T06:01:54.142Z,2.70
2023-02-27T06:04:35.108Z,2.70
2023-02-27T06:07:19.950Z,2.60
2023-02-27T06:10:00.588Z,2.90
2023-02-27T06:12:42.560Z,3.10
2023-02-27T06:15:23.309Z,2.30
2023-02-27T06:18:03.390Z,1.90
2023-02-27T06:20:44.346Z,1.40
2023-02-27T06:23:25.031Z,2.10
2023-02-27T06:26:05.439Z,1.70
2023-02-27T06:28:47.114Z,2.70
2023-02-27T06:31:27.788Z,1.80
2023-02-27T06:34:10.075Z,1.40
2023-02-27T06:36:50.195Z,1.80
2023-02-27T06:39:32.515Z,2.60
2023-02-27T06:42:13.862Z,2.30
2023-02-27T06:44:54.506Z,2.30
2023-02-27T06:47:34.120Z,1.60
2023-02-27T06:50:16.956Z,2.50
2023-02-27T06:53:01.829Z,1.40
2023-02-27T06:55:37.515Z,1.90
2023-02-27T06:58:18.172Z,2.30
2023-02-27T07:01:02.538Z,2.30
2023-02-27T07:03:38.909Z,2.30
2023-02-27T07:06:18.047Z,2.60
2023-02-27T07:09:06.387Z,1.70
2023-02-27T07:11:50.600Z,2.20
2023-02-27T07:14:32.204Z,2.70
2023-02-27T07:17:13.106Z,1.70
2023-02-27T07:19:54.320Z,3.80
2023-02-27T07:22:34.868Z,3.90
2023-02-27T07:25:15.801Z,3.10
2023-02-27T07:27:56.716Z,3.30
2023-02-27T07:30:35.835Z,2.10
2023-02-27T07:33:18.326Z,2.30
2023-02-27T07:35:59.308Z,2.20
2023-02-27T07:38:36.370Z,2.60
2023-02-27T07:41:29.849Z,2.30
2023-02-27T07:46:48.970Z,2.60
2023-02-27T07:49:30.784Z,2.30
2023-02-27T07:52:12.616Z,1.90
2023-02-27T07:54:49.190Z,2.20
2023-02-27T07:57:29.431Z,2.10
2023-02-27T08:00:13.287Z,1.40
2023-02-27T08:02:53.887Z,1.80
2023-02-27T08:05:36.024Z,2.10
2023-02-27T08:08:16.982Z,2.20
2023-02-27T08:10:58.086Z,2.50
2023-02-27T08:16:36.300Z,1.50
2023-02-27T08:19:18.143Z,2.90
2023-02-27T08:21:59.124Z,1.40
2023-02-27T08:24:36.021Z,1.50
2023-02-27T08:27:18.443Z,0.90
2023-02-27T08:29:59.152Z,1.50
2023-02-27T08:32:37.098Z,1.00
2023-02-27T08:35:19.980Z,1.40
2023-02-27T08:38:01.880Z,1.30
2023-02-27T08:40:37.107Z,1.80
2023-02-27T08:43:14.355Z,1.50
2023-02-27T08:45:56.891Z,1.90
2023-02-27T08:48:36.350Z,1.60
2023-02-27T08:51:17.826Z,1.20
2023-02-27T08:56:37.297Z,2.10
2023-02-27T08:59:18.378Z,1.80
2023-02-27T09:02:00.415Z,1.80
2023-02-27T09:04:37.308Z,1.40
2023-02-27T09:07:19.068Z,3.80
2023-02-27T09:10:00.540Z,10.10
2023-02-27T09:12:37.768Z,5.40
2023-02-27T09:15:19.302Z,1.50
2023-02-27T09:18:04.659Z,2.10
2023-02-27T09:20:44.772Z,2.20
2023-02-27T09:23:26.134Z,2.10
2023-02-27T09:26:08.180Z,2.00
2023-02-27T09:28:44.298Z,1.60
2023-02-27T09:31:21.258Z,2.00
2023-02-27T09:34:03.302Z,2.20
2023-02-27T09:36:38.854Z,1.80
2023-02-27T09:39:19.850Z,1.30
2023-02-27T09:42:37.061Z,2.60
2023-02-27T09:45:29.702Z,2.70
2023-02-27T09:48:31.644Z,2.00
2023-02-27T09:51:13.892Z,3.00
2023-02-27T09:53:58.798Z,2.20
2023-02-27T09:57:00.050Z,2.50
2023-02-27T10:02:34.111Z,1.90
2023-02-27T10:06:07.178Z,1.50
2023-02-27T10:08:54.355Z,1.30
2023-02-27T10:12:18.349Z,1.40
2023-02-27T10:15:19.684Z,1.70
2023-02-27T10:18:30.993Z,2.90
2023-02-27T10:21:21.814Z,3.20
2023-02-27T10:24:21.273Z,2.50
2023-02-27T10:27:07.210Z,2.30
2023-02-27T10:29:45.079Z,3.20
2023-02-27T10:32:36.877Z,2.20
2023-02-27T10:35:42.432Z,2.70
2023-02-27T10:38:49.513Z,3.20
2023-02-27T10:41:31.873Z,2.10
2023-02-27T10:44:20.524Z,2.30
2023-02-27T10:47:01.597Z,2.00
2023-02-27T10:49:41.358Z,1.80
2023-02-27T10:52:23.584Z,2.30
2023-02-27T10:55:22.211Z,1.50
2023-02-27T10:58:04.517Z,1.50
2023-02-27T11:01:04.386Z,2.30
2023-02-27T11:03:46.246Z,2.20
2023-02-27T11:09:31.776Z,2.20
2023-02-27T11:12:38.058Z,2.10
2023-02-27T11:15:29.634Z,2.10
2023-02-27T11:18:33.719Z,1.70
2023-02-27T11:21:22.239Z,1.80
2023-02-27T11:24:21.132Z,1.80
2023-02-27T11:27:23.909Z,3.00
2023-02-27T11:30:09.719Z,3.50
2023-02-27T11:32:56.291Z,3.10
2023-02-27T11:35:42.248Z,2.50
2023-02-27T11:38:34.129Z,2.50
2023-02-27T11:41:16.072Z,2.10
2023-02-27T11:44:02.606Z,2.20
2023-02-27T11:46:47.953Z,1.60
2023-02-27T11:50:04.479Z,2.30
2023-02-27T11:53:39.972Z,2.00
2023-02-27T11:56:39.490Z,2.80
2023-02-27T11:59:28.419Z,2.30
2023-02-27T12:02:47.736Z,2.70
2023-02-27T12:05:45.434Z,2.60
2023-02-27T12:08:48.932Z,2.10
2023-02-27T12:11:47.284Z,2.70
2023-02-27T12:14:50.658Z,2.80
2023-02-27T12:18:05.230Z,2.60
2023-02-27T12:21:09.217Z,2.60
2023-02-27T12:24:05.037Z,1.40
2023-02-27T12:26:47.150Z,4.90
2023-02-27T12:30:15.252Z,2.40
2023-02-27T12:33:29.430Z,2.80
2023-02-27T12:36:15.257Z,2.90
2023-02-27T12:38:52.139Z,2.90
2023-02-27T12:41:58.337Z,2.90
2023-02-27T12:44:59.202Z,1.50
2023-02-27T12:47:58.998Z,2.30
2023-02-27T12:51:49.514Z,3.40
2023-02-27T12:54:59.052Z,3.00
2023-02-27T12:58:05.388Z,3.70
2023-02-27T13:01:32.625Z,2.70
2023-02-27T13:04:40.597Z,2.40
2023-02-27T13:07:37.727Z,3.80
2023-02-27T13:10:42.522Z,2.90
2023-02-27T13:13:58.385Z,2.70
2023-02-27T13:16:46.864Z,2.50
2023-02-27T13:20:02.592Z,1.50
2023-02-27T13:23:49.468Z,1.80
2023-02-27T13:26:41.589Z,3.00
2023-02-27T13:29:25.352Z,2.60
2023-02-27T13:32:43.148Z,3.00
2023-02-27T13:35:57.635Z,3.40
2023-02-27T13:38:49.398Z,2.50
2023-02-27T13:41:36.286Z,2.40
2023-02-27T13:44:30.344Z,3.10
2023-02-27T13:47:35.660Z,2.90
2023-02-27T13:50:26.867Z,3.00
2023-02-27T13:53:19.754Z,2.30
2023-02-27T13:56:27.145Z,2.50
2023-02-27T13:59:34.270Z,3.80
2023-02-27T14:02:19.881Z,2.10
2023-02-27T14:05:01.082Z,2.90
2023-02-27T14:08:02.738Z,3.20
2023-02-27T14:10:54.200Z,4.00
2023-02-27T14:13:56.546Z,2.40
2023-02-27T14:16:45.688Z,1.70
2023-02-27T14:19:25.668Z,2.90
2023-02-27T14:22:21.040Z,2.80
2023-02-27T14:25:24.417Z,3.00
2023-02-27T14:28:07.158Z,3.50
2023-02-27T14:30:57.006Z,3.10
2023-02-27T14:33:56.739Z,3.70
2023-02-27T14:36:46.201Z,2.90
2023-02-27T14:39:42.587Z,3.80
2023-02-27T14:43:01.464Z,3.50
2023-02-27T14:45:43.687Z,3.30
2023-02-27T14:48:30.732Z,3.10
2023-02-27T14:51:15.282Z,2.90
2023-02-27T14:54:07.244Z,3.70
2023-02-27T14:57:06.288Z,3.10
2023-02-27T14:59:52.714Z,3.20
2023-02-27T15:02:39.079Z,3.70
2023-02-27T15:05:32.315Z,4.20
2023-02-27T15:08:23.977Z,3.00
2023-02-27T15:11:04.307Z,2.30
2023-02-27T15:13:48.323Z,3.50
2023-02-27T15:16:44.567Z,2.30
2023-02-27T15:19:33.536Z,5.30
2023-02-27T15:22:39.415Z,2.30
2023-02-27T15:25:38.553Z,2.20
2023-02-27T15:28:40.940Z,2.70
2023-02-27T15:31:32.546Z,3.40
2023-02-27T15:34:16.713Z,2.40
2023-02-27T15:36:58.972Z,2.80
2023-02-27T15:39:40.130Z,2.40
2023-02-27T15:42:22.606Z,1.90
2023-02-27T15:45:00.167Z,3.20
2023-02-27T15:47:43.916Z,3.50
2023-02-27T15:50:42.017Z,3.60
2023-02-27T15:53:29.201Z,3.90
2023-02-27T15:56:16.076Z,3.50
2023-02-27T15:59:00.640Z,2.70
2023-02-27T16:01:42.473Z,2.30
2023-02-27T16:04:41.015Z,3.10
2023-02-27T16:07:28.129Z,3.40
2023-02-27T16:10:21.789Z,3.80
2023-02-27T16:12:58.009Z,3.00
2023-02-27T16:15:43.046Z,3.20
2023-02-27T16:18:29.451Z,4.20
2023-02-27T16:21:17.506Z,4.10
2023-02-27T16:23:57.538Z,3.20
2023-02-27T16:26:40.515Z,3.00
2023-02-27T16:29:45.721Z,2.20
2023-02-27T16:32:44.399Z,2.60
2023-02-27T16:35:26.929Z,4.40
2023-02-27T16:38:05.451Z,2.70
2023-02-27T16:40:47.827Z,3.60
2023-02-27T16:43:29.268Z,3.60
2023-02-27T16:46:05.053Z,2.80
2023-02-27T16:48:46.377Z,3.10
2023-02-27T16:51:29.725Z,2.90
2023-02-27T16:54:06.172Z,2.30
2023-02-27T16:56:48.207Z,2.90
2023-02-27T16:59:42.146Z,4.00
2023-02-27T17:02:23.708Z,4.00
2023-02-27T17:05:03.736Z,3.80
2023-02-27T17:07:44.949Z,4.50
2023-02-27T17:10:26.756Z,3.70
2023-02-27T17:13:05.091Z,4.40
2023-02-27T17:15:46.577Z,4.30
2023-02-27T17:18:23.372Z,3.10
2023-02-27T17:21:05.042Z,3.90
2023-02-27T17:23:47.161Z,4.30
2023-02-27T17:29:08.447Z,4.00
2023-02-27T17:31:49.483Z,3.50
2023-02-27T17:34:31.729Z,4.40
2023-02-27T17:37:09.242Z,4.30
2023-02-27T17:39:46.925Z,4.10
2023-02-27T17:42:29.295Z,4.10
2023-02-27T17:45:10.446Z,4.70
2023-02-27T17:47:51.815Z,4.50
2023-02-27T17:50:34.184Z,4.00
2023-02-27T17:53:12.636Z,3.60
2023-02-27T17:55:53.430Z,3.50
2023-02-27T17:58:33.798Z,3.80
2023-02-27T18:01:14.742Z,4.20
2023-02-27T18:03:56.714Z,3.80
2023-02-27T18:06:37.214Z,3.10
2023-02-27T18:09:14.457Z,4.70
2023-02-27T18:11:57.158Z,4.30
2023-02-27T18:14:33.015Z,4.20
2023-02-27T18:17:15.150Z,3.70
2023-02-27T18:19:55.678Z,3.90
2023-02-27T18:22:37.398Z,4.60
2023-02-27T18:28:03.709Z,3.90
2023-02-27T18:30:45.496Z,4.20
2023-02-27T18:33:26.184Z,5.20
2023-02-27T18:36:07.399Z,3.90
2023-02-27T18:38:50.443Z,4.20
2023-02-27T18:41:31.439Z,5.10
2023-02-27T18:44:13.291Z,4.80
2023-02-27T18:49:29.710Z,5.00
2023-02-27T18:52:11.302Z,4.70
2023-02-27T18:54:53.229Z,6.00
2023-02-27T18:57:33.407Z,4.50
2023-02-27T19:00:18.439Z,4.80
2023-02-27T19:03:01.731Z,5.00
2023-02-27T19:05:46.877Z,4.80
2023-02-27T19:08:30.688Z,6.50
2023-02-27T19:11:12.799Z,4.20
2023-02-27T19:13:54.529Z,4.90
2023-02-27T19:16:35.855Z,4.90
2023-02-27T19:19:18.506Z,5.30
2023-02-27T19:22:00.298Z,4.20
2023-02-27T19:24:47.519Z,3.90
2023-02-27T19:27:29.525Z,5.40
2023-02-27T19:30:12.295Z,4.00
2023-02-27T19:32:52.616Z,4.30
2023-02-27T19:35:33.055Z,4.90
2023-02-27T19:38:14.111Z,5.30
2023-02-27T19:40:55.539Z,5.30
2023-02-27T19:43:37.594Z,4.70
2023-02-27T19:46:25.490Z,4.40
2023-02-27T19:49:09.879Z,5.40
2023-02-27T19:51:51.631Z,5.00
2023-02-27T19:54:33.765Z,5.60
2023-02-27T19:59:58.517Z,5.10
2023-02-27T20:02:42.593Z,4.00
2023-02-27T20:05:24.258Z,4.90
2023-02-27T20:08:05.694Z,5.50
2023-02-27T20:10:59.353Z,5.50
2023-02-27T20:13:41.166Z,6.00
2023-02-27T20:16:29.955Z,5.60
2023-02-27T20:19:14.409Z,4.80
2023-02-27T20:21:56.669Z,5.10
2023-02-27T20:24:39.543Z,5.50
2023-02-27T20:27:21.739Z,4.80
2023-02-27T20:30:02.786Z,5.20
2023-02-27T20:32:48.063Z,4.60
2023-02-27T20:35:29.735Z,5.90
2023-02-27T20:40:49.882Z,5.10
2023-02-27T20:43:33.476Z,4.60
2023-02-27T20:46:17.183Z,4.50
2023-02-27T20:49:02.078Z,5.30
2023-02-27T20:51:44.011Z,4.20
2023-02-27T20:57:03.812Z,5.40
2023-02-27T20:59:44.934Z,6.00
2023-02-27T21:02:26.336Z,5.40
2023-02-27T21:05:07.499Z,5.00
2023-02-27T21:07:48.079Z,5.10
2023-02-27T21:10:29.086Z,5.50
2023-02-27T21:13:10.547Z,5.80
2023-02-27T21:15:52.075Z,5.30
2023-02-27T21:18:33.860Z,4.80
2023-02-27T21:21:22.238Z,5.00
2023-02-27T21:24:08.522Z,5.80
2023-02-27T21:26:47.111Z,6.90
2023-02-27T21:29:25.471Z,6.20
2023-02-27T21:32:05.309Z,6.10
2023-02-27T21:34:44.829Z,4.70
2023-02-27T21:37:24.434Z,5.30
2023-02-27T21:40:05.988Z,5.60
2023-02-27T21:42:45.909Z,8.00
2023-02-27T21:45:24.940Z,8.70
2023-02-27T21:48:04.928Z,8.40
2023-02-27T21:50:45.279Z,10.50
2023-02-27T21:53:25.778Z,10.80
2023-02-27T21:56:14.418Z,11.00
2023-02-27T21:58:55.002Z,8.90
2023-02-27T22:01:36.220Z,9.90
2023-02-27T22:04:16.763Z,9.30
2023-02-27T22:06:58.879Z,8.50
2023-02-27T22:09:40.335Z,10.20
2023-02-27T22:12:21.608Z,11.30
2023-02-27T22:15:02.157Z,11.20
2023-02-27T22:17:43.572Z,11.40
2023-02-27T22:20:25.463Z,11.30
2023-02-27T22:23:06.388Z,10.90
2023-02-27T22:25:46.774Z,10.30
2023-02-27T22:28:27.674Z,9.30
2023-02-27T22:31:30.571Z,10.10
2023-02-27T22:34:13.708Z,9.70
2023-02-27T22:36:56.082Z,9.80
2023-02-27T22:39:37.468Z,10.20
2023-02-27T22:42:13.376Z,10.40
2023-02-27T22:44:54.695Z,8.30
2023-02-27T22:47:36.522Z,9.60
2023-02-27T22:52:59.329Z,8.80
2023-02-27T22:55:39.600Z,11.30
2023-02-27T22:58:20.623Z,9.30
2023-02-27T23:01:02.194Z,11.20
2023-02-27T23:03:45.851Z,11.30
2023-02-27T23:06:33.976Z,11.20
2023-02-27T23:09:19.153Z,10.10
2023-02-27T23:12:00.424Z,9.90
2023-02-27T23:14:41.205Z,10.70
2023-02-27T23:17:22.259Z,9.60
2023-02-27T23:20:02.869Z,9.40
2023-02-27T23:22:43.729Z,9.00
2023-02-27T23:25:25.357Z,8.90
2023-02-27T23:28:07.022Z,10.10
2023-02-27T23:30:53.829Z,8.90
2023-02-27T23:33:33.540Z,9.60
2023-02-27T23:36:12.960Z,9.90
2023-02-27T23:38:51.343Z,10.50
2023-02-27T23:41:31.341Z,9.10
2023-02-27T23:44:11.872Z,10.10
2023-02-27T23:46:51.489Z,9.50
2023-02-27T23:49:31.439Z,10.00
2023-02-27T23:52:11.825Z,9.30
2023-02-27T23:54:51.473Z,10.00
2023-02-27T23:57:31.397Z,11.50
